Portada
METAR-TAF:

METAR-TAF

Aeropuertos :

Aeropuerto de Asturias

Avilés, España

latitud: 43-33N, longitud: 006-02W, altitud: 127 m

Observación

El informe se hizo hace 28 minutos, a las 08:30 UTC
Viento 5 kt del suroeste, variando entre sur y oeste
Temperatura 12°C
Humedad 58%
Presión 1028 hPa
Visibilidad 10 km o más
sin nubes por debajo de 1500 m y sin presencia de cumulonimbus.

METAR: LEAS 220830Z 22005KT 190V260 CAVOK 12/04 Q1028 NOSIG

Hora: 09:58 (08:58 UTC)

Pronóstico

El informe se hizo hace 58 minutos, a las 08:00 UTC
Pronóstico válido del 22 a las 09 UTC al 23 a las 09 UTC
Viento 9 kt del sur-suroeste
Visibilidad 10 km o más
sin nubes por debajo de 1500 m y sin presencia de cumulonimbus.
Probabilidad 40%
del 22 a las 12 UTC al 22 a las 18 UTC
Viento 10 kt del este-noreste

TAF: LEAS 220800Z 2209/2309 20009KT CAVOK TX19/2215Z TN07/2306Z PROB40 2212/2218 06010KT

Observaciones y pronósticos meteorológicos de más de 4000 aeropuertos (mensajes METAR y TAF).

Los puntos amarillos y rojos representan las estaciones disponibles.

Ponga el ratón en el punto deseado para ver el nombre de la estación.

Haga clic para ver las observaciones y los pronósticos meteorológicos.

Para cambiar el mapa : haga clic en los botones verdes con una cruz de color negro para hacer un zoom, en el botón verde con un guión para alejar o en las flechas verdes para mapas adyacentes.


METAR-TAF: